sensor_id;sensor_type;location;lat;lon;timestamp;P1;durP1;ratioP1;P2;durP2;ratioP2
13085;SDS011;6609;49.882;8.664;2023-03-01T00:02:20;16.98;;;8.85;;
13085;SDS011;6609;49.882;8.664;2023-03-01T00:04:47;21.38;;;9.30;;
13085;SDS011;6609;49.882;8.664;2023-03-01T00:07:14;19.95;;;9.40;;
13085;SDS011;6609;49.882;8.664;2023-03-01T00:09:41;17.83;;;9.00;;
13085;SDS011;6609;49.882;8.664;2023-03-01T00:12:12;16.95;;;9.20;;
13085;SDS011;6609;49.882;8.664;2023-03-01T00:14:38;18.63;;;9.05;;
13085;SDS011;6609;49.882;8.664;2023-03-01T00:17:05;19.02;;;8.48;;
13085;SDS011;6609;49.882;8.664;2023-03-01T00:19:32;20.45;;;8.88;;
13085;SDS011;6609;49.882;8.664;2023-03-01T00:21:59;17.17;;;8.73;;
13085;SDS011;6609;49.882;8.664;2023-03-01T00:24:26;19.33;;;8.85;;
13085;SDS011;6609;49.882;8.664;2023-03-01T00:26:53;28.10;;;13.23;;
13085;SDS011;6609;49.882;8.664;2023-03-01T00:29:22;21.38;;;9.25;;
13085;SDS011;6609;49.882;8.664;2023-03-01T00:31:50;19.08;;;9.20;;
13085;SDS011;6609;49.882;8.664;2023-03-01T00:34:17;20.25;;;8.63;;
13085;SDS011;6609;49.882;8.664;2023-03-01T00:36:44;19.70;;;9.63;;
13085;SDS011;6609;49.882;8.664;2023-03-01T00:39:12;17.55;;;8.77;;
13085;SDS011;6609;49.882;8.664;2023-03-01T00:41:40;21.55;;;8.95;;
13085;SDS011;6609;49.882;8.664;2023-03-01T00:44:06;16.88;;;8.45;;
13085;SDS011;6609;49.882;8.664;2023-03-01T00:46:35;18.23;;;9.65;;
13085;SDS011;6609;49.882;8.664;2023-03-01T00:49:02;18.05;;;8.95;;
13085;SDS011;6609;49.882;8.664;2023-03-01T00:51:29;17.70;;;9.45;;
13085;SDS011;6609;49.882;8.664;2023-03-01T00:53:59;15.63;;;8.10;;
13085;SDS011;6609;49.882;8.664;2023-03-01T00:56:27;17.77;;;8.55;;
13085;SDS011;6609;49.882;8.664;2023-03-01T00:58:55;16.60;;;9.32;;
13085;SDS011;6609;49.882;8.664;2023-03-01T01:01:22;21.35;;;10.00;;
13085;SDS011;6609;49.882;8.664;2023-03-01T01:03:55;20.17;;;9.43;;
13085;SDS011;6609;49.882;8.664;2023-03-01T01:06:24;16.85;;;8.55;;
13085;SDS011;6609;49.882;8.664;2023-03-01T01:08:52;20.35;;;9.80;;
13085;SDS011;6609;49.882;8.664;2023-03-01T01:11:20;19.80;;;9.18;;
13085;SDS011;6609;49.882;8.664;2023-03-01T01:13:47;17.88;;;8.75;;
13085;SDS011;6609;49.882;8.664;2023-03-01T01:16:15;17.70;;;9.43;;
13085;SDS011;6609;49.882;8.664;2023-03-01T01:18:42;18.88;;;8.45;;
13085;SDS011;6609;49.882;8.664;2023-03-01T01:21:11;16.88;;;8.60;;
13085;SDS011;6609;49.882;8.664;2023-03-01T01:23:39;20.15;;;8.45;;
13085;SDS011;6609;49.882;8.664;2023-03-01T01:26:07;16.13;;;8.15;;
13085;SDS011;6609;49.882;8.664;2023-03-01T01:28:37;15.98;;;8.15;;
13085;SDS011;6609;49.882;8.664;2023-03-01T01:31:04;15.93;;;8.95;;
13085;SDS011;6609;49.882;8.664;2023-03-01T01:33:31;17.25;;;8.98;;
13085;SDS011;6609;49.882;8.664;2023-03-01T01:35:59;16.25;;;8.75;;
13085;SDS011;6609;49.882;8.664;2023-03-01T01:38:27;21.15;;;9.00;;
13085;SDS011;6609;49.882;8.664;2023-03-01T01:40:54;17.65;;;8.60;;
13085;SDS011;6609;49.882;8.664;2023-03-01T01:43:22;16.08;;;8.70;;
13085;SDS011;6609;49.882;8.664;2023-03-01T01:45:50;17.90;;;9.20;;
13085;SDS011;6609;49.882;8.664;2023-03-01T01:48:18;13.55;;;7.70;;
13085;SDS011;6609;49.882;8.664;2023-03-01T01:50:49;18.08;;;9.40;;
13085;SDS011;6609;49.882;8.664;2023-03-01T01:53:20;15.48;;;8.02;;
13085;SDS011;6609;49.882;8.664;2023-03-01T01:55:50;21.50;;;9.82;;
13085;SDS011;6609;49.882;8.664;2023-03-01T01:58:22;24.35;;;11.32;;
13085;SDS011;6609;49.882;8.664;2023-03-01T02:00:52;18.15;;;9.48;;
13085;SDS011;6609;49.882;8.664;2023-03-01T02:03:20;14.13;;;8.85;;
13085;SDS011;6609;49.882;8.664;2023-03-01T02:05:55;17.23;;;9.45;;
13085;SDS011;6609;49.882;8.664;2023-03-01T02:08:26;20.35;;;9.20;;
13085;SDS011;6609;49.882;8.664;2023-03-01T02:10:57;21.25;;;9.30;;
13085;SDS011;6609;49.882;8.664;2023-03-01T02:13:25;16.17;;;9.23;;
13085;SDS011;6609;49.882;8.664;2023-03-01T02:15:52;19.17;;;8.95;;
13085;SDS011;6609;49.882;8.664;2023-03-01T02:18:20;20.48;;;9.55;;
13085;SDS011;6609;49.882;8.664;2023-03-01T02:20:51;20.77;;;9.48;;
13085;SDS011;6609;49.882;8.664;2023-03-01T02:23:31;21.98;;;9.52;;
13085;SDS011;6609;49.882;8.664;2023-03-01T02:26:00;20.75;;;10.25;;
13085;SDS011;6609;49.882;8.664;2023-03-01T02:28:34;21.75;;;10.43;;
13085;SDS011;6609;49.882;8.664;2023-03-01T02:31:02;18.67;;;9.82;;
13085;SDS011;6609;49.882;8.664;2023-03-01T02:33:48;20.08;;;10.07;;
13085;SDS011;6609;49.882;8.664;2023-03-01T02:36:15;24.20;;;10.57;;
13085;SDS011;6609;49.882;8.664;2023-03-01T02:38:44;22.05;;;10.43;;
13085;SDS011;6609;49.882;8.664;2023-03-01T02:41:12;17.05;;;9.30;;
13085;SDS011;6609;49.882;8.664;2023-03-01T02:43:41;20.88;;;10.88;;
13085;SDS011;6609;49.882;8.664;2023-03-01T02:46:08;16.48;;;9.27;;
13085;SDS011;6609;49.882;8.664;2023-03-01T02:48:42;23.45;;;9.90;;
13085;SDS011;6609;49.882;8.664;2023-03-01T02:51:14;22.27;;;10.65;;
13085;SDS011;6609;49.882;8.664;2023-03-01T02:54:06;22.05;;;10.13;;
13085;SDS011;6609;49.882;8.664;2023-03-01T02:56:38;21.23;;;9.88;;
13085;SDS011;6609;49.882;8.664;2023-03-01T02:59:06;21.48;;;9.93;;
13085;SDS011;6609;49.882;8.664;2023-03-01T03:01:34;23.40;;;10.07;;
13085;SDS011;6609;49.882;8.664;2023-03-01T03:04:03;20.25;;;9.90;;
13085;SDS011;6609;49.882;8.664;2023-03-01T03:06:30;26.35;;;11.23;;
13085;SDS011;6609;49.882;8.664;2023-03-01T03:08:57;21.50;;;10.70;;
13085;SDS011;6609;49.882;8.664;2023-03-01T03:11:24;21.80;;;10.18;;
13085;SDS011;6609;49.882;8.664;2023-03-01T03:13:51;27.30;;;10.77;;
13085;SDS011;6609;49.882;8.664;2023-03-01T03:16:20;21.98;;;10.20;;
13085;SDS011;6609;49.882;8.664;2023-03-01T03:18:47;21.08;;;10.05;;
13085;SDS011;6609;49.882;8.664;2023-03-01T03:21:15;22.13;;;9.70;;
13085;SDS011;6609;49.882;8.664;2023-03-01T03:23:42;19.73;;;9.57;;
13085;SDS011;6609;49.882;8.664;2023-03-01T03:26:09;23.58;;;9.70;;
13085;SDS011;6609;49.882;8.664;2023-03-01T03:28:38;24.60;;;10.68;;
13085;SDS011;6609;49.882;8.664;2023-03-01T03:31:05;21.77;;;10.88;;
13085;SDS011;6609;49.882;8.664;2023-03-01T03:33:33;23.38;;;10.80;;
13085;SDS011;6609;49.882;8.664;2023-03-01T03:36:00;25.45;;;11.98;;
13085;SDS011;6609;49.882;8.664;2023-03-01T03:38:27;25.00;;;10.50;;
13085;SDS011;6609;49.882;8.664;2023-03-01T03:40:59;21.23;;;10.52;;
13085;SDS011;6609;49.882;8.664;2023-03-01T03:43:27;17.63;;;9.85;;
13085;SDS011;6609;49.882;8.664;2023-03-01T03:45:54;19.67;;;10.00;;
13085;SDS011;6609;49.882;8.664;2023-03-01T03:48:22;22.13;;;10.32;;
13085;SDS011;6609;49.882;8.664;2023-03-01T03:50:52;21.13;;;10.98;;
13085;SDS011;6609;49.882;8.664;2023-03-01T03:53:20;22.98;;;10.77;;
13085;SDS011;6609;49.882;8.664;2023-03-01T03:55:47;23.23;;;10.27;;
13085;SDS011;6609;49.882;8.664;2023-03-01T03:58:17;21.23;;;11.23;;
13085;SDS011;6609;49.882;8.664;2023-03-01T04:00:46;22.95;;;11.27;;
13085;SDS011;6609;49.882;8.664;2023-03-01T04:03:15;22.02;;;10.77;;
13085;SDS011;6609;49.882;8.664;2023-03-01T04:05:42;21.80;;;11.10;;
13085;SDS011;6609;49.882;8.664;2023-03-01T04:08:10;22.02;;;10.73;;
13085;SDS011;6609;49.882;8.664;2023-03-01T04:10:40;28.30;;;11.98;;
13085;SDS011;6609;49.882;8.664;2023-03-01T04:13:09;23.60;;;11.05;;
13085;SDS011;6609;49.882;8.664;2023-03-01T04:15:38;21.65;;;10.10;;
13085;SDS011;6609;49.882;8.664;2023-03-01T04:18:05;25.33;;;10.55;;
13085;SDS011;6609;49.882;8.664;2023-03-01T04:20:33;21.75;;;11.05;;
13085;SDS011;6609;49.882;8.664;2023-03-01T04:23:02;20.88;;;10.05;;
13085;SDS011;6609;49.882;8.664;2023-03-01T04:25:36;19.90;;;9.77;;
13085;SDS011;6609;49.882;8.664;2023-03-01T04:28:04;21.15;;;10.30;;
13085;SDS011;6609;49.882;8.664;2023-03-01T04:30:31;26.92;;;13.63;;
13085;SDS011;6609;49.882;8.664;2023-03-01T04:33:00;29.65;;;11.60;;
13085;SDS011;6609;49.882;8.664;2023-03-01T04:35:28;26.25;;;11.35;;
13085;SDS011;6609;49.882;8.664;2023-03-01T04:37:55;24.83;;;11.85;;
13085;SDS011;6609;49.882;8.664;2023-03-01T04:40:22;22.95;;;11.35;;
13085;SDS011;6609;49.882;8.664;2023-03-01T04:42:51;23.98;;;10.57;;
13085;SDS011;6609;49.882;8.664;2023-03-01T04:45:18;26.90;;;12.35;;
13085;SDS011;6609;49.882;8.664;2023-03-01T04:47:45;21.42;;;11.70;;
13085;SDS011;6609;49.882;8.664;2023-03-01T04:50:13;20.00;;;10.10;;
13085;SDS011;6609;49.882;8.664;2023-03-01T04:52:41;21.98;;;10.82;;
13085;SDS011;6609;49.882;8.664;2023-03-01T04:55:09;24.08;;;11.77;;
13085;SDS011;6609;49.882;8.664;2023-03-01T04:57:36;22.20;;;11.52;;
13085;SDS011;6609;49.882;8.664;2023-03-01T05:00:05;23.75;;;10.82;;
13085;SDS011;6609;49.882;8.664;2023-03-01T05:02:45;23.95;;;11.93;;
13085;SDS011;6609;49.882;8.664;2023-03-01T05:05:13;28.88;;;12.05;;
13085;SDS011;6609;49.882;8.664;2023-03-01T05:07:40;26.25;;;12.63;;
13085;SDS011;6609;49.882;8.664;2023-03-01T05:10:07;25.83;;;11.77;;
13085;SDS011;6609;49.882;8.664;2023-03-01T05:12:35;22.83;;;11.50;;
13085;SDS011;6609;49.882;8.664;2023-03-01T05:15:02;27.90;;;12.80;;
13085;SDS011;6609;49.882;8.664;2023-03-01T05:17:33;21.02;;;10.27;;
13085;SDS011;6609;49.882;8.664;2023-03-01T05:20:00;19.73;;;10.48;;
13085;SDS011;6609;49.882;8.664;2023-03-01T05:22:29;24.88;;;11.07;;
13085;SDS011;6609;49.882;8.664;2023-03-01T05:24:56;22.45;;;12.07;;
13085;SDS011;6609;49.882;8.664;2023-03-01T05:27:23;19.23;;;10.00;;
13085;SDS011;6609;49.882;8.664;2023-03-01T05:29:49;23.67;;;11.95;;
13085;SDS011;6609;49.882;8.664;2023-03-01T05:32:16;27.73;;;12.63;;
13085;SDS011;6609;49.882;8.664;2023-03-01T05:34:45;23.55;;;11.73;;
13085;SDS011;6609;49.882;8.664;2023-03-01T05:37:12;23.30;;;11.32;;
13085;SDS011;6609;49.882;8.664;2023-03-01T05:39:39;22.25;;;11.50;;
13085;SDS011;6609;49.882;8.664;2023-03-01T05:42:09;24.65;;;12.82;;
13085;SDS011;6609;49.882;8.664;2023-03-01T05:44:36;22.88;;;11.38;;
13085;SDS011;6609;49.882;8.664;2023-03-01T05:47:03;24.60;;;12.05;;
13085;SDS011;6609;49.882;8.664;2023-03-01T05:49:33;27.48;;;13.10;;
13085;SDS011;6609;49.882;8.664;2023-03-01T05:52:01;24.95;;;12.45;;
13085;SDS011;6609;49.882;8.664;2023-03-01T05:54:27;23.58;;;11.68;;
13085;SDS011;6609;49.882;8.664;2023-03-01T05:56:54;25.50;;;12.73;;
13085;SDS011;6609;49.882;8.664;2023-03-01T05:59:21;22.67;;;12.70;;
13085;SDS011;6609;49.882;8.664;2023-03-01T06:01:48;23.70;;;12.18;;
13085;SDS011;6609;49.882;8.664;2023-03-01T06:04:16;25.55;;;13.02;;
13085;SDS011;6609;49.882;8.664;2023-03-01T06:06:43;27.55;;;12.00;;
13085;SDS011;6609;49.882;8.664;2023-03-01T06:09:11;26.20;;;12.10;;
13085;SDS011;6609;49.882;8.664;2023-03-01T06:11:39;31.63;;;12.05;;
13085;SDS011;6609;49.882;8.664;2023-03-01T06:14:07;25.27;;;11.70;;
13085;SDS011;6609;49.882;8.664;2023-03-01T06:16:35;29.58;;;13.00;;
13085;SDS011;6609;49.882;8.664;2023-03-01T06:19:02;25.50;;;12.43;;
13085;SDS011;6609;49.882;8.664;2023-03-01T06:21:29;24.77;;;11.57;;
13085;SDS011;6609;49.882;8.664;2023-03-01T06:23:56;28.42;;;12.07;;
13085;SDS011;6609;49.882;8.664;2023-03-01T06:26:25;22.80;;;10.63;;
13085;SDS011;6609;49.882;8.664;2023-03-01T06:28:51;24.73;;;12.48;;
13085;SDS011;6609;49.882;8.664;2023-03-01T06:31:18;28.92;;;12.07;;
13085;SDS011;6609;49.882;8.664;2023-03-01T06:33:45;28.20;;;12.65;;
13085;SDS011;6609;49.882;8.664;2023-03-01T06:36:12;24.13;;;12.38;;
13085;SDS011;6609;49.882;8.664;2023-03-01T06:38:39;27.20;;;12.80;;
13085;SDS011;6609;49.882;8.664;2023-03-01T06:41:06;25.40;;;11.75;;
13085;SDS011;6609;49.882;8.664;2023-03-01T06:43:35;29.15;;;12.60;;
13085;SDS011;6609;49.882;8.664;2023-03-01T06:46:03;26.38;;;12.57;;
13085;SDS011;6609;49.882;8.664;2023-03-01T06:48:31;27.42;;;12.23;;
13085;SDS011;6609;49.882;8.664;2023-03-01T06:50:58;20.27;;;11.07;;
13085;SDS011;6609;49.882;8.664;2023-03-01T06:53:25;26.80;;;13.30;;
13085;SDS011;6609;49.882;8.664;2023-03-01T06:55:53;22.10;;;11.85;;
13085;SDS011;6609;49.882;8.664;2023-03-01T06:58:20;24.55;;;11.50;;
13085;SDS011;6609;49.882;8.664;2023-03-01T07:00:49;22.33;;;11.57;;
13085;SDS011;6609;49.882;8.664;2023-03-01T07:03:15;24.58;;;11.63;;
13085;SDS011;6609;49.882;8.664;2023-03-01T07:05:43;26.90;;;13.13;;
13085;SDS011;6609;49.882;8.664;2023-03-01T07:08:10;23.05;;;11.40;;
13085;SDS011;6609;49.882;8.664;2023-03-01T07:10:37;24.58;;;12.48;;
13085;SDS011;6609;49.882;8.664;2023-03-01T07:13:04;27.10;;;12.30;;
13085;SDS011;6609;49.882;8.664;2023-03-01T07:15:33;23.45;;;11.77;;
13085;SDS011;6609;49.882;8.664;2023-03-01T07:18:01;26.23;;;11.98;;
13085;SDS011;6609;49.882;8.664;2023-03-01T07:20:28;22.27;;;12.07;;
13085;SDS011;6609;49.882;8.664;2023-03-01T07:22:55;21.35;;;11.05;;
13085;SDS011;6609;49.882;8.664;2023-03-01T07:25:23;20.15;;;11.10;;
13085;SDS011;6609;49.882;8.664;2023-03-01T07:27:50;24.52;;;11.05;;
13085;SDS011;6609;49.882;8.664;2023-03-01T07:30:18;21.70;;;11.25;;
13085;SDS011;6609;49.882;8.664;2023-03-01T07:32:45;23.35;;;12.00;;
13085;SDS011;6609;49.882;8.664;2023-03-01T07:35:13;19.63;;;10.95;;
13085;SDS011;6609;49.882;8.664;2023-03-01T07:37:40;22.30;;;11.73;;
13085;SDS011;6609;49.882;8.664;2023-03-01T07:40:07;19.63;;;11.57;;
13085;SDS011;6609;49.882;8.664;2023-03-01T07:42:35;24.75;;;11.55;;
13085;SDS011;6609;49.882;8.664;2023-03-01T07:45:02;21.27;;;11.00;;
13085;SDS011;6609;49.882;8.664;2023-03-01T07:47:29;24.77;;;10.60;;
13085;SDS011;6609;49.882;8.664;2023-03-01T07:49:56;25.42;;;11.45;;
13085;SDS011;6609;49.882;8.664;2023-03-01T07:52:25;24.13;;;12.23;;
13085;SDS011;6609;49.882;8.664;2023-03-01T07:54:52;18.85;;;10.57;;
13085;SDS011;6609;49.882;8.664;2023-03-01T07:57:19;19.83;;;10.63;;
13085;SDS011;6609;49.882;8.664;2023-03-01T07:59:46;19.60;;;11.23;;
13085;SDS011;6609;49.882;8.664;2023-03-01T08:02:13;16.40;;;10.53;;
13085;SDS011;6609;49.882;8.664;2023-03-01T08:04:41;21.83;;;11.35;;
13085;SDS011;6609;49.882;8.664;2023-03-01T08:07:08;20.30;;;10.77;;
13085;SDS011;6609;49.882;8.664;2023-03-01T08:09:36;17.07;;;9.77;;
13085;SDS011;6609;49.882;8.664;2023-03-01T08:12:03;22.23;;;11.83;;
13085;SDS011;6609;49.882;8.664;2023-03-01T08:14:30;20.60;;;11.20;;
13085;SDS011;6609;49.882;8.664;2023-03-01T08:16:57;19.50;;;10.90;;
13085;SDS011;6609;49.882;8.664;2023-03-01T08:19:25;19.33;;;11.47;;
13085;SDS011;6609;49.882;8.664;2023-03-01T08:21:53;19.13;;;10.20;;
13085;SDS011;6609;49.882;8.664;2023-03-01T08:24:20;18.03;;;10.27;;
13085;SDS011;6609;49.882;8.664;2023-03-01T08:26:49;20.80;;;12.03;;
13085;SDS011;6609;49.882;8.664;2023-03-01T08:29:16;18.50;;;10.80;;
13085;SDS011;6609;49.882;8.664;2023-03-01T08:31:43;23.90;;;12.30;;
13085;SDS011;6609;49.882;8.664;2023-03-01T08:34:10;19.17;;;11.23;;
13085;SDS011;6609;49.882;8.664;2023-03-01T08:36:39;18.30;;;10.30;;
13085;SDS011;6609;49.882;8.664;2023-03-01T08:39:08;21.57;;;12.20;;
13085;SDS011;6609;49.882;8.664;2023-03-01T08:41:36;21.20;;;11.87;;
13085;SDS011;6609;49.882;8.664;2023-03-01T08:44:05;19.08;;;11.07;;
13085;SDS011;6609;49.882;8.664;2023-03-01T08:46:33;19.33;;;11.35;;
13085;SDS011;6609;49.882;8.664;2023-03-01T08:49:03;17.90;;;11.20;;
13085;SDS011;6609;49.882;8.664;2023-03-01T08:51:30;23.73;;;11.07;;
13085;SDS011;6609;49.882;8.664;2023-03-01T08:54:02;18.07;;;11.80;;
13085;SDS011;6609;49.882;8.664;2023-03-01T08:56:29;22.30;;;11.37;;
13085;SDS011;6609;49.882;8.664;2023-03-01T08:58:56;23.40;;;12.68;;
13085;SDS011;6609;49.882;8.664;2023-03-01T09:01:25;22.60;;;11.00;;
13085;SDS011;6609;49.882;8.664;2023-03-01T09:03:52;19.98;;;11.93;;
13085;SDS011;6609;49.882;8.664;2023-03-01T09:06:19;21.23;;;11.27;;
13085;SDS011;6609;49.882;8.664;2023-03-01T09:08:48;19.40;;;11.70;;
13085;SDS011;6609;49.882;8.664;2023-03-01T09:11:16;19.53;;;11.67;;
13085;SDS011;6609;49.882;8.664;2023-03-01T09:13:45;23.17;;;12.27;;
13085;SDS011;6609;49.882;8.664;2023-03-01T09:16:13;21.00;;;11.23;;
13085;SDS011;6609;49.882;8.664;2023-03-01T09:18:43;22.93;;;12.33;;
13085;SDS011;6609;49.882;8.664;2023-03-01T09:21:11;21.50;;;10.47;;
13085;SDS011;6609;49.882;8.664;2023-03-01T09:23:40;21.63;;;11.17;;
13085;SDS011;6609;49.882;8.664;2023-03-01T09:26:09;20.17;;;10.67;;
13085;SDS011;6609;49.882;8.664;2023-03-01T09:28:36;22.10;;;11.53;;
13085;SDS011;6609;49.882;8.664;2023-03-01T09:31:04;16.83;;;9.87;;
13085;SDS011;6609;49.882;8.664;2023-03-01T09:33:32;21.43;;;11.90;;
13085;SDS011;6609;49.882;8.664;2023-03-01T09:36:01;20.60;;;11.93;;
13085;SDS011;6609;49.882;8.664;2023-03-01T09:38:29;19.87;;;11.43;;
13085;SDS011;6609;49.882;8.664;2023-03-01T09:40:56;19.67;;;11.47;;
13085;SDS011;6609;49.882;8.664;2023-03-01T09:43:25;19.70;;;12.23;;
13085;SDS011;6609;49.882;8.664;2023-03-01T09:45:55;20.30;;;11.00;;
13085;SDS011;6609;49.882;8.664;2023-03-01T09:48:26;18.70;;;12.07;;
13085;SDS011;6609;49.882;8.664;2023-03-01T09:50:54;19.67;;;10.93;;
13085;SDS011;6609;49.882;8.664;2023-03-01T09:53:22;21.67;;;11.93;;
13085;SDS011;6609;49.882;8.664;2023-03-01T09:55:52;19.93;;;11.97;;
13085;SDS011;6609;49.882;8.664;2023-03-01T09:58:35;16.77;;;10.70;;
13085;SDS011;6609;49.882;8.664;2023-03-01T10:01:16;17.07;;;10.43;;
13085;SDS011;6609;49.882;8.664;2023-03-01T10:04:00;19.83;;;10.77;;
13085;SDS011;6609;49.882;8.664;2023-03-01T10:06:39;19.73;;;12.00;;
13085;SDS011;6609;49.882;8.664;2023-03-01T10:09:17;19.60;;;11.93;;
13085;SDS011;6609;49.882;8.664;2023-03-01T10:11:45;22.53;;;11.93;;
13085;SDS011;6609;49.882;8.664;2023-03-01T10:14:15;19.57;;;11.73;;
13085;SDS011;6609;49.882;8.664;2023-03-01T10:16:46;21.10;;;12.57;;
13085;SDS011;6609;49.882;8.664;2023-03-01T10:19:20;19.50;;;11.70;;
13085;SDS011;6609;49.882;8.664;2023-03-01T10:21:50;16.17;;;11.80;;
13085;SDS011;6609;49.882;8.664;2023-03-01T10:24:19;19.43;;;12.23;;
13085;SDS011;6609;49.882;8.664;2023-03-01T10:26:48;20.03;;;12.30;;
13085;SDS011;6609;49.882;8.664;2023-03-01T10:29:22;18.80;;;11.73;;
13085;SDS011;6609;49.882;8.664;2023-03-01T10:31:52;17.70;;;11.90;;
13085;SDS011;6609;49.882;8.664;2023-03-01T10:34:21;20.63;;;12.00;;
13085;SDS011;6609;49.882;8.664;2023-03-01T10:36:49;19.27;;;12.40;;
13085;SDS011;6609;49.882;8.664;2023-03-01T10:39:17;21.23;;;12.73;;
13085;SDS011;6609;49.882;8.664;2023-03-01T10:41:55;16.13;;;11.30;;
13085;SDS011;6609;49.882;8.664;2023-03-01T10:44:40;16.20;;;11.67;;
13085;SDS011;6609;49.882;8.664;2023-03-01T10:47:13;16.43;;;11.90;;
13085;SDS011;6609;49.882;8.664;2023-03-01T10:49:53;17.80;;;11.97;;
13085;SDS011;6609;49.882;8.664;2023-03-01T10:52:22;16.30;;;11.00;;
13085;SDS011;6609;49.882;8.664;2023-03-01T10:54:52;15.30;;;10.30;;
13085;SDS011;6609;49.882;8.664;2023-03-01T10:57:24;15.67;;;10.57;;
13085;SDS011;6609;49.882;8.664;2023-03-01T11:02:46;16.07;;;10.77;;
13085;SDS011;6609;49.882;8.664;2023-03-01T11:05:17;17.60;;;11.77;;
13085;SDS011;6609;49.882;8.664;2023-03-01T11:07:49;14.40;;;11.00;;
13085;SDS011;6609;49.882;8.664;2023-03-01T11:10:19;19.13;;;11.87;;
13085;SDS011;6609;49.882;8.664;2023-03-01T11:12:46;18.23;;;11.43;;
13085;SDS011;6609;49.882;8.664;2023-03-01T11:15:22;16.47;;;10.37;;
13085;SDS011;6609;49.882;8.664;2023-03-01T11:17:51;18.17;;;11.47;;
13085;SDS011;6609;49.882;8.664;2023-03-01T11:20:20;14.30;;;10.57;;
13085;SDS011;6609;49.882;8.664;2023-03-01T11:22:51;16.73;;;11.03;;
13085;SDS011;6609;49.882;8.664;2023-03-01T11:25:23;14.80;;;10.00;;
13085;SDS011;6609;49.882;8.664;2023-03-01T11:27:51;16.23;;;10.10;;
13085;SDS011;6609;49.882;8.664;2023-03-01T11:30:20;18.80;;;11.00;;
13085;SDS011;6609;49.882;8.664;2023-03-01T11:32:50;15.73;;;11.57;;
13085;SDS011;6609;49.882;8.664;2023-03-01T11:35:25;17.40;;;11.07;;
13085;SDS011;6609;49.882;8.664;2023-03-01T11:37:55;15.27;;;11.27;;
13085;SDS011;6609;49.882;8.664;2023-03-01T11:40:34;15.13;;;10.50;;
13085;SDS011;6609;49.882;8.664;2023-03-01T11:43:19;14.00;;;10.10;;
13085;SDS011;6609;49.882;8.664;2023-03-01T11:45:51;12.83;;;9.77;;
13085;SDS011;6609;49.882;8.664;2023-03-01T11:48:27;13.17;;;10.37;;
13085;SDS011;6609;49.882;8.664;2023-03-01T11:51:13;15.30;;;10.23;;
13085;SDS011;6609;49.882;8.664;2023-03-01T11:53:51;13.97;;;10.07;;
13085;SDS011;6609;49.882;8.664;2023-03-01T11:56:31;14.57;;;10.37;;
13085;SDS011;6609;49.882;8.664;2023-03-01T11:59:03;16.57;;;10.93;;
13085;SDS011;6609;49.882;8.664;2023-03-01T12:01:46;14.13;;;9.83;;
13085;SDS011;6609;49.882;8.664;2023-03-01T12:04:48;16.90;;;10.37;;
13085;SDS011;6609;49.882;8.664;2023-03-01T12:07:19;14.77;;;10.37;;
13085;SDS011;6609;49.882;8.664;2023-03-01T12:09:58;15.23;;;10.40;;
13085;SDS011;6609;49.882;8.664;2023-03-01T12:12:42;18.30;;;10.83;;
13085;SDS011;6609;49.882;8.664;2023-03-01T12:15:23;16.63;;;10.50;;
13085;SDS011;6609;49.882;8.664;2023-03-01T12:18:12;20.20;;;10.37;;
13085;SDS011;6609;49.882;8.664;2023-03-01T12:20:41;17.87;;;9.43;;
13085;SDS011;6609;49.882;8.664;2023-03-01T12:26:06;16.27;;;9.73;;
13085;SDS011;6609;49.882;8.664;2023-03-01T12:28:44;14.60;;;8.53;;
13085;SDS011;6609;49.882;8.664;2023-03-01T12:31:25;17.30;;;9.27;;
13085;SDS011;6609;49.882;8.664;2023-03-01T12:34:14;15.13;;;8.70;;
13085;SDS011;6609;49.882;8.664;2023-03-01T12:36:56;16.37;;;9.37;;
13085;SDS011;6609;49.882;8.664;2023-03-01T12:39:50;17.03;;;9.37;;
13085;SDS011;6609;49.882;8.664;2023-03-01T12:42:21;16.67;;;8.90;;
13085;SDS011;6609;49.882;8.664;2023-03-01T12:45:05;13.67;;;8.00;;
13085;SDS011;6609;49.882;8.664;2023-03-01T12:47:44;12.73;;;9.07;;
13085;SDS011;6609;49.882;8.664;2023-03-01T12:50:17;13.83;;;8.90;;
13085;SDS011;6609;49.882;8.664;2023-03-01T12:52:47;13.03;;;8.10;;
13085;SDS011;6609;49.882;8.664;2023-03-01T12:55:24;13.80;;;8.57;;
13085;SDS011;6609;49.882;8.664;2023-03-01T12:57:56;15.17;;;8.20;;
13085;SDS011;6609;49.882;8.664;2023-03-01T13:00:31;13.57;;;7.80;;
13085;SDS011;6609;49.882;8.664;2023-03-01T13:03:09;11.70;;;7.97;;
13085;SDS011;6609;49.882;8.664;2023-03-01T13:05:48;12.43;;;7.87;;
13085;SDS011;6609;49.882;8.664;2023-03-01T13:08:29;14.33;;;8.43;;
13085;SDS011;6609;49.882;8.664;2023-03-01T13:11:03;13.90;;;8.70;;
13085;SDS011;6609;49.882;8.664;2023-03-01T13:13:31;14.53;;;8.73;;
13085;SDS011;6609;49.882;8.664;2023-03-01T13:16:11;15.40;;;9.10;;
13085;SDS011;6609;49.882;8.664;2023-03-01T13:18:48;11.00;;;8.27;;
13085;SDS011;6609;49.882;8.664;2023-03-01T13:21:21;13.67;;;8.67;;
13085;SDS011;6609;49.882;8.664;2023-03-01T13:23:56;18.80;;;10.13;;
13085;SDS011;6609;49.882;8.664;2023-03-01T13:26:23;17.50;;;9.67;;
13085;SDS011;6609;49.882;8.664;2023-03-01T13:28:51;17.60;;;8.80;;
13085;SDS011;6609;49.882;8.664;2023-03-01T13:34:40;18.37;;;10.10;;
13085;SDS011;6609;49.882;8.664;2023-03-01T13:37:08;16.67;;;9.03;;
13085;SDS011;6609;49.882;8.664;2023-03-01T13:39:39;17.50;;;8.40;;
13085;SDS011;6609;49.882;8.664;2023-03-01T13:44:56;11.50;;;8.10;;
13085;SDS011;6609;49.882;8.664;2023-03-01T13:47:23;15.03;;;8.30;;
13085;SDS011;6609;49.882;8.664;2023-03-01T13:49:53;11.70;;;8.33;;
13085;SDS011;6609;49.882;8.664;2023-03-01T13:52:29;17.43;;;9.13;;
13085;SDS011;6609;49.882;8.664;2023-03-01T13:55:02;15.23;;;8.57;;
13085;SDS011;6609;49.882;8.664;2023-03-01T13:57:32;15.37;;;8.53;;
13085;SDS011;6609;49.882;8.664;2023-03-01T14:00:00;10.70;;;7.23;;
13085;SDS011;6609;49.882;8.664;2023-03-01T14:02:26;14.77;;;8.23;;
13085;SDS011;6609;49.882;8.664;2023-03-01T14:04:58;13.70;;;9.10;;
13085;SDS011;6609;49.882;8.664;2023-03-01T14:07:26;13.40;;;7.70;;
13085;SDS011;6609;49.882;8.664;2023-03-01T14:09:56;13.63;;;7.57;;
13085;SDS011;6609;49.882;8.664;2023-03-01T14:12:26;13.10;;;7.67;;
13085;SDS011;6609;49.882;8.664;2023-03-01T14:15:06;13.80;;;7.43;;
13085;SDS011;6609;49.882;8.664;2023-03-01T14:17:44;16.73;;;8.47;;
13085;SDS011;6609;49.882;8.664;2023-03-01T14:20:20;11.07;;;7.73;;
13085;SDS011;6609;49.882;8.664;2023-03-01T14:22:48;11.50;;;6.90;;
13085;SDS011;6609;49.882;8.664;2023-03-01T14:25:28;11.83;;;7.20;;
13085;SDS011;6609;49.882;8.664;2023-03-01T14:27:58;14.57;;;8.00;;
13085;SDS011;6609;49.882;8.664;2023-03-01T14:30:30;22.07;;;9.40;;
13085;SDS011;6609;49.882;8.664;2023-03-01T14:33:00;13.60;;;7.93;;
13085;SDS011;6609;49.882;8.664;2023-03-01T14:35:30;15.13;;;8.20;;
13085;SDS011;6609;49.882;8.664;2023-03-01T14:37:57;8.87;;;6.67;;
13085;SDS011;6609;49.882;8.664;2023-03-01T14:40:26;11.33;;;7.20;;
13085;SDS011;6609;49.882;8.664;2023-03-01T14:42:54;10.50;;;7.40;;
13085;SDS011;6609;49.882;8.664;2023-03-01T14:45:25;12.03;;;7.67;;
13085;SDS011;6609;49.882;8.664;2023-03-01T14:47:54;14.03;;;7.17;;
13085;SDS011;6609;49.882;8.664;2023-03-01T14:50:23;16.37;;;8.07;;
13085;SDS011;6609;49.882;8.664;2023-03-01T14:52:56;11.47;;;7.83;;
13085;SDS011;6609;49.882;8.664;2023-03-01T14:55:26;13.00;;;7.13;;
13085;SDS011;6609;49.882;8.664;2023-03-01T14:57:56;15.13;;;8.13;;
13085;SDS011;6609;49.882;8.664;2023-03-01T15:00:24;16.27;;;8.30;;
13085;SDS011;6609;49.882;8.664;2023-03-01T15:02:53;15.00;;;8.40;;
13085;SDS011;6609;49.882;8.664;2023-03-01T15:05:24;13.57;;;7.70;;
13085;SDS011;6609;49.882;8.664;2023-03-01T15:07:55;14.50;;;8.37;;